sensor_id;sensor_type;location;lat;lon;timestamp;pressure;altitude;pressure_sealevel;temperature;humidity
57900;BME280;60605;53.716;19.940;2022-09-03T00:02:25;101142.88;;;8.76;100.00
57900;BME280;60605;53.716;19.940;2022-09-03T00:08:03;101141.63;;;8.80;100.00
57900;BME280;60605;53.716;19.940;2022-09-03T00:13:08;101137.61;;;8.81;100.00
57900;BME280;60605;53.716;19.940;2022-09-03T00:18:20;101133.45;;;8.82;100.00
57900;BME280;60605;53.716;19.940;2022-09-03T00:23:26;101127.80;;;8.88;100.00
57900;BME280;60605;53.716;19.940;2022-09-03T00:28:56;101121.84;;;8.89;100.00
57900;BME280;60605;53.716;19.940;2022-09-03T00:34:04;101119.81;;;8.92;100.00
57900;BME280;60605;53.716;19.940;2022-09-03T00:39:14;101116.69;;;8.96;100.00
57900;BME280;60605;53.716;19.940;2022-09-03T00:44:29;101119.07;;;8.95;100.00
57900;BME280;60605;53.716;19.940;2022-09-03T01:00:39;101130.85;;;8.86;100.00
57900;BME280;60605;53.716;19.940;2022-09-03T01:06:43;101130.60;;;8.78;100.00
57900;BME280;60605;53.716;19.940;2022-09-03T01:17:30;101134.36;;;8.62;100.00
57900;BME280;60605;53.716;19.940;2022-09-03T01:28:04;101133.63;;;8.39;100.00
57900;BME280;60605;53.716;19.940;2022-09-03T01:39:05;101128.55;;;8.17;100.00
57900;BME280;60605;53.716;19.940;2022-09-03T01:49:48;101136.15;;;8.00;100.00
57900;BME280;60605;53.716;19.940;2022-09-03T02:00:22;101133.67;;;7.85;100.00
57900;BME280;60605;53.716;19.940;2022-09-03T02:05:27;101123.65;;;7.79;100.00
57900;BME280;60605;53.716;19.940;2022-09-03T02:10:42;101130.14;;;7.73;100.00
57900;BME280;60605;53.716;19.940;2022-09-03T02:15:47;101133.83;;;7.67;100.00
57900;BME280;60605;53.716;19.940;2022-09-03T02:20:53;101121.17;;;7.60;100.00
57900;BME280;60605;53.716;19.940;2022-09-03T02:25:57;101117.86;;;7.57;100.00
57900;BME280;60605;53.716;19.940;2022-09-03T02:31:00;101121.45;;;7.59;100.00
57900;BME280;60605;53.716;19.940;2022-09-03T02:36:06;101118.83;;;7.53;100.00
57900;BME280;60605;53.716;19.940;2022-09-03T02:41:09;101126.88;;;7.50;100.00
57900;BME280;60605;53.716;19.940;2022-09-03T02:46:23;101120.23;;;7.46;100.00
57900;BME280;60605;53.716;19.940;2022-09-03T02:51:37;101117.14;;;7.45;100.00
57900;BME280;60605;53.716;19.940;2022-09-03T02:56:39;101119.13;;;7.42;100.00
57900;BME280;60605;53.716;19.940;2022-09-03T03:01:42;101123.41;;;7.39;100.00
57900;BME280;60605;53.716;19.940;2022-09-03T03:06:47;101118.25;;;7.35;100.00
57900;BME280;60605;53.716;19.940;2022-09-03T03:11:51;101112.25;;;7.32;100.00
57900;BME280;60605;53.716;19.940;2022-09-03T03:16:55;101109.36;;;7.28;100.00
57900;BME280;60605;53.716;19.940;2022-09-03T03:21:57;101118.46;;;7.22;100.00
57900;BME280;60605;53.716;19.940;2022-09-03T03:26:59;101118.25;;;7.17;100.00
57900;BME280;60605;53.716;19.940;2022-09-03T03:32:01;101114.08;;;7.11;100.00
57900;BME280;60605;53.716;19.940;2022-09-03T03:37:03;101114.34;;;7.05;100.00
57900;BME280;60605;53.716;19.940;2022-09-03T03:42:06;101117.49;;;7.01;100.00
57900;BME280;60605;53.716;19.940;2022-09-03T03:47:08;101125.05;;;7.00;100.00
57900;BME280;60605;53.716;19.940;2022-09-03T03:52:10;101132.41;;;6.96;100.00
57900;BME280;60605;53.716;19.940;2022-09-03T03:57:13;101132.42;;;6.94;100.00
57900;BME280;60605;53.716;19.940;2022-09-03T04:02:15;101123.61;;;6.95;100.00
57900;BME280;60605;53.716;19.940;2022-09-03T04:07:18;101115.05;;;7.00;100.00
57900;BME280;60605;53.716;19.940;2022-09-03T04:12:20;101123.25;;;7.07;100.00
57900;BME280;60605;53.716;19.940;2022-09-03T04:17:22;101139.08;;;7.24;100.00
57900;BME280;60605;53.716;19.940;2022-09-03T04:22:27;101134.79;;;8.12;100.00
57900;BME280;60605;53.716;19.940;2022-09-03T04:27:30;101128.03;;;9.38;100.00
57900;BME280;60605;53.716;19.940;2022-09-03T04:32:31;101131.86;;;10.78;100.00
57900;BME280;60605;53.716;19.940;2022-09-03T04:37:53;101137.93;;;12.32;99.99
57900;BME280;60605;53.716;19.940;2022-09-03T04:42:57;101142.43;;;13.74;97.77
57900;BME280;60605;53.716;19.940;2022-09-03T04:48:03;101146.20;;;15.12;92.01
57900;BME280;60605;53.716;19.940;2022-09-03T04:53:05;101155.06;;;16.47;86.68
57900;BME280;60605;53.716;19.940;2022-09-03T04:58:09;101155.63;;;17.57;79.30
57900;BME280;60605;53.716;19.940;2022-09-03T05:03:11;101149.59;;;18.23;74.53
57900;BME280;60605;53.716;19.940;2022-09-03T05:08:13;101147.27;;;19.11;70.93
57900;BME280;60605;53.716;19.940;2022-09-03T05:13:15;101147.91;;;19.96;67.08
57900;BME280;60605;53.716;19.940;2022-09-03T05:18:18;101153.87;;;21.00;64.10
57900;BME280;60605;53.716;19.940;2022-09-03T05:23:20;101159.20;;;22.05;60.12
57900;BME280;60605;53.716;19.940;2022-09-03T05:28:24;101158.35;;;22.89;56.33
57900;BME280;60605;53.716;19.940;2022-09-03T05:33:36;101165.06;;;23.68;52.24
57900;BME280;60605;53.716;19.940;2022-09-03T05:38:39;101164.30;;;24.13;48.55
57900;BME280;60605;53.716;19.940;2022-09-03T05:43:41;101167.73;;;24.51;47.28
57900;BME280;60605;53.716;19.940;2022-09-03T05:48:44;101159.23;;;25.07;45.15
57900;BME280;60605;53.716;19.940;2022-09-03T05:53:47;101161.93;;;25.36;43.54
57900;BME280;60605;53.716;19.940;2022-09-03T05:58:51;101164.67;;;25.86;41.82
57900;BME280;60605;53.716;19.940;2022-09-03T06:03:56;101160.36;;;26.80;40.81
57900;BME280;60605;53.716;19.940;2022-09-03T06:09:01;101161.71;;;27.52;38.75
57900;BME280;60605;53.716;19.940;2022-09-03T06:14:05;101162.91;;;28.28;36.63
57900;BME280;60605;53.716;19.940;2022-09-03T06:19:09;101168.10;;;28.76;34.17
57900;BME280;60605;53.716;19.940;2022-09-03T06:24:14;101165.13;;;28.88;33.70
57900;BME280;60605;53.716;19.940;2022-09-03T06:29:17;101162.15;;;29.29;33.25
57900;BME280;60605;53.716;19.940;2022-09-03T06:34:20;101163.70;;;29.85;32.12
57900;BME280;60605;53.716;19.940;2022-09-03T06:39:23;101172.71;;;30.41;31.20
57900;BME280;60605;53.716;19.940;2022-09-03T06:44:28;101177.66;;;31.16;30.05
57900;BME280;60605;53.716;19.940;2022-09-03T06:49:29;101182.05;;;31.61;29.47
57900;BME280;60605;53.716;19.940;2022-09-03T06:54:32;101186.69;;;32.10;28.38
57900;BME280;60605;53.716;19.940;2022-09-03T06:59:34;101186.25;;;32.62;27.17
57900;BME280;60605;53.716;19.940;2022-09-03T07:04:35;101190.77;;;33.10;25.97
57900;BME280;60605;53.716;19.940;2022-09-03T07:09:39;101184.60;;;33.26;25.17
57900;BME280;60605;53.716;19.940;2022-09-03T07:14:41;101181.27;;;33.11;24.79
57900;BME280;60605;53.716;19.940;2022-09-03T07:19:43;101186.38;;;32.93;24.12
57900;BME280;60605;53.716;19.940;2022-09-03T07:24:46;101190.29;;;32.68;24.88
57900;BME280;60605;53.716;19.940;2022-09-03T07:29:48;101182.33;;;33.69;25.71
57900;BME280;60605;53.716;19.940;2022-09-03T07:34:50;101186.13;;;34.91;23.61
57900;BME280;60605;53.716;19.940;2022-09-03T07:39:53;101191.11;;;35.26;22.29
57900;BME280;60605;53.716;19.940;2022-09-03T07:44:55;101190.90;;;35.74;22.52
57900;BME280;60605;53.716;19.940;2022-09-03T07:49:59;101194.56;;;36.71;22.05
57900;BME280;60605;53.716;19.940;2022-09-03T07:55:01;101195.24;;;37.10;20.21
57900;BME280;60605;53.716;19.940;2022-09-03T08:00:09;101199.02;;;37.34;20.09
57900;BME280;60605;53.716;19.940;2022-09-03T08:05:13;101201.23;;;37.66;19.75
57900;BME280;60605;53.716;19.940;2022-09-03T08:10:16;101199.83;;;37.62;18.71
57900;BME280;60605;53.716;19.940;2022-09-03T08:15:18;101198.56;;;37.37;18.68
57900;BME280;60605;53.716;19.940;2022-09-03T08:20:21;101195.14;;;37.70;19.10
57900;BME280;60605;53.716;19.940;2022-09-03T08:25:24;101185.41;;;37.92;18.62
57900;BME280;60605;53.716;19.940;2022-09-03T08:30:26;101181.30;;;38.19;18.35
57900;BME280;60605;53.716;19.940;2022-09-03T08:35:28;101177.09;;;38.26;18.42
57900;BME280;60605;53.716;19.940;2022-09-03T08:40:32;101177.29;;;38.03;17.55
57900;BME280;60605;53.716;19.940;2022-09-03T08:45:38;101178.71;;;37.81;18.71
57900;BME280;60605;53.716;19.940;2022-09-03T08:50:48;101174.20;;;38.35;18.50
57900;BME280;60605;53.716;19.940;2022-09-03T08:56:05;101173.36;;;39.25;17.65
57900;BME280;60605;53.716;19.940;2022-09-03T09:01:22;101177.11;;;39.51;17.55
57900;BME280;60605;53.716;19.940;2022-09-03T09:06:56;101174.20;;;39.86;17.01
57900;BME280;60605;53.716;19.940;2022-09-03T09:28:00;101163.95;;;39.58;15.04
57900;BME280;60605;53.716;19.940;2022-09-03T09:33:03;101158.30;;;39.67;14.86
57900;BME280;60605;53.716;19.940;2022-09-03T09:38:05;101158.29;;;39.77;14.18
57900;BME280;60605;53.716;19.940;2022-09-03T09:43:19;101156.02;;;38.86;15.24
57900;BME280;60605;53.716;19.940;2022-09-03T09:48:28;101146.73;;;38.57;15.57
57900;BME280;60605;53.716;19.940;2022-09-03T09:53:34;101145.61;;;37.31;15.61
57900;BME280;60605;53.716;19.940;2022-09-03T09:58:37;101144.40;;;33.74;18.07
57900;BME280;60605;53.716;19.940;2022-09-03T10:03:48;101135.27;;;29.74;21.48
57900;BME280;60605;53.716;19.940;2022-09-03T10:09:15;101128.23;;;27.02;24.76
57900;BME280;60605;53.716;19.940;2022-09-03T10:14:26;101131.70;;;24.88;26.68
57900;BME280;60605;53.716;19.940;2022-09-03T10:19:58;101128.41;;;23.12;29.47
57900;BME280;60605;53.716;19.940;2022-09-03T10:25:25;101121.00;;;22.37;31.24
57900;BME280;60605;53.716;19.940;2022-09-03T10:30:36;101120.54;;;22.03;32.04
57900;BME280;60605;53.716;19.940;2022-09-03T10:35:52;101114.08;;;21.65;31.70
57900;BME280;60605;53.716;19.940;2022-09-03T10:46:14;101111.67;;;21.07;33.14
57900;BME280;60605;53.716;19.940;2022-09-03T10:51:27;101107.95;;;20.87;32.87
57900;BME280;60605;53.716;19.940;2022-09-03T10:56:56;101108.30;;;20.79;33.58
57900;BME280;60605;53.716;19.940;2022-09-03T11:07:33;101100.15;;;20.51;32.59
57900;BME280;60605;53.716;19.940;2022-09-03T11:12:43;101098.45;;;20.39;34.03
57900;BME280;60605;53.716;19.940;2022-09-03T11:17:54;101096.27;;;20.35;33.66
57900;BME280;60605;53.716;19.940;2022-09-03T11:23:02;101094.52;;;20.18;33.06
57900;BME280;60605;53.716;19.940;2022-09-03T11:33:22;101086.70;;;20.12;34.76
57900;BME280;60605;53.716;19.940;2022-09-03T11:38:27;101085.38;;;20.08;33.15
57900;BME280;60605;53.716;19.940;2022-09-03T11:43:32;101084.54;;;20.00;33.40
57900;BME280;60605;53.716;19.940;2022-09-03T11:48:37;101082.58;;;19.96;33.89
57900;BME280;60605;53.716;19.940;2022-09-03T11:53:39;101083.20;;;19.86;33.98
57900;BME280;60605;53.716;19.940;2022-09-03T11:58:41;101081.92;;;19.79;33.72
57900;BME280;60605;53.716;19.940;2022-09-03T12:03:50;101072.75;;;19.82;34.76
57900;BME280;60605;53.716;19.940;2022-09-03T12:09:22;101059.55;;;19.93;35.13
57900;BME280;60605;53.716;19.940;2022-09-03T12:19:53;101054.84;;;19.75;34.71
57900;BME280;60605;53.716;19.940;2022-09-03T12:25:11;101045.09;;;19.69;33.56
57900;BME280;60605;53.716;19.940;2022-09-03T12:30:16;101035.69;;;19.70;35.23
57900;BME280;60605;53.716;19.940;2022-09-03T12:35:22;101024.92;;;19.65;34.64
57900;BME280;60605;53.716;19.940;2022-09-03T12:40:44;101031.01;;;19.60;36.64
57900;BME280;60605;53.716;19.940;2022-09-03T12:46:13;101026.64;;;19.64;36.91
57900;BME280;60605;53.716;19.940;2022-09-03T12:51:16;101016.09;;;19.65;38.08
57900;BME280;60605;53.716;19.940;2022-09-03T12:56:39;101017.42;;;19.60;37.69
57900;BME280;60605;53.716;19.940;2022-09-03T13:01:51;101011.23;;;19.61;38.09
57900;BME280;60605;53.716;19.940;2022-09-03T13:07:00;101012.52;;;19.63;37.84
57900;BME280;60605;53.716;19.940;2022-09-03T13:12:05;101027.69;;;19.53;37.36
57900;BME280;60605;53.716;19.940;2022-09-03T13:33:22;101007.93;;;19.39;38.81
57900;BME280;60605;53.716;19.940;2022-09-03T13:38:45;101006.88;;;19.41;38.04
57900;BME280;60605;53.716;19.940;2022-09-03T13:44:02;100997.71;;;19.37;38.24
57900;BME280;60605;53.716;19.940;2022-09-03T13:54:58;100995.39;;;19.35;38.63
57900;BME280;60605;53.716;19.940;2022-09-03T14:00:07;100990.16;;;19.27;38.84
57900;BME280;60605;53.716;19.940;2022-09-03T14:05:46;100984.08;;;19.22;39.00
57900;BME280;60605;53.716;19.940;2022-09-03T14:10:53;100980.87;;;19.10;38.31
57900;BME280;60605;53.716;19.940;2022-09-03T14:21:18;100969.76;;;19.04;39.91
57900;BME280;60605;53.716;19.940;2022-09-03T14:26:33;100966.84;;;19.01;40.31
57900;BME280;60605;53.716;19.940;2022-09-03T14:37:21;100955.91;;;18.99;40.67
57900;BME280;60605;53.716;19.940;2022-09-03T14:42:53;100959.73;;;18.91;40.97
57900;BME280;60605;53.716;19.940;2022-09-03T15:03:33;100950.06;;;18.63;42.57
57900;BME280;60605;53.716;19.940;2022-09-03T15:14:17;100950.48;;;18.51;43.02
57900;BME280;60605;53.716;19.940;2022-09-03T15:19:50;100949.06;;;18.43;43.42
57900;BME280;60605;53.716;19.940;2022-09-03T15:30:18;100954.65;;;18.33;42.69
57900;BME280;60605;53.716;19.940;2022-09-03T15:50:56;100959.11;;;18.19;44.23
57900;BME280;60605;53.716;19.940;2022-09-03T16:07:01;100960.23;;;17.92;45.68
57900;BME280;60605;53.716;19.940;2022-09-03T16:23:15;100966.09;;;17.56;47.44
57900;BME280;60605;53.716;19.940;2022-09-03T16:34:01;100969.94;;;17.28;48.24
57900;BME280;60605;53.716;19.940;2022-09-03T17:11:37;100968.69;;;15.99;53.95
57900;BME280;60605;53.716;19.940;2022-09-03T17:50:19;101003.98;;;14.28;60.12
57900;BME280;60605;53.716;19.940;2022-09-03T18:22:38;101020.46;;;13.57;64.03
57900;BME280;60605;53.716;19.940;2022-09-03T18:28:06;101026.28;;;13.52;64.82
57900;BME280;60605;53.716;19.940;2022-09-03T18:33:30;101024.92;;;13.48;65.06
57900;BME280;60605;53.716;19.940;2022-09-03T18:38:51;101027.67;;;13.42;65.32
57900;BME280;60605;53.716;19.940;2022-09-03T18:50:36;101043.44;;;13.34;65.86
57900;BME280;60605;53.716;19.940;2022-09-03T19:01:43;101038.95;;;13.14;66.52
57900;BME280;60605;53.716;19.940;2022-09-03T19:12:51;101044.77;;;13.00;67.05
57900;BME280;60605;53.716;19.940;2022-09-03T19:23:38;101056.64;;;12.93;67.83
57900;BME280;60605;53.716;19.940;2022-09-03T19:29:04;101056.08;;;12.91;67.73
57900;BME280;60605;53.716;19.940;2022-09-03T19:34:55;101058.77;;;12.85;67.96
57900;BME280;60605;53.716;19.940;2022-09-03T19:57:10;101069.63;;;12.62;69.34
57900;BME280;60605;53.716;19.940;2022-09-03T20:02:33;101072.30;;;12.53;69.90
57900;BME280;60605;53.716;19.940;2022-09-03T20:07:56;101071.59;;;12.44;70.33
57900;BME280;60605;53.716;19.940;2022-09-03T20:13:19;101074.42;;;12.35;70.66
57900;BME280;60605;53.716;19.940;2022-09-03T20:23:57;101086.73;;;12.20;71.28
57900;BME280;60605;53.716;19.940;2022-09-03T20:45:17;101099.33;;;11.97;72.53
57900;BME280;60605;53.716;19.940;2022-09-03T20:55:57;101106.41;;;11.81;72.89
57900;BME280;60605;53.716;19.940;2022-09-03T21:01:05;101105.97;;;11.74;73.53
57900;BME280;60605;53.716;19.940;2022-09-03T21:06:25;101107.58;;;11.68;73.66
57900;BME280;60605;53.716;19.940;2022-09-03T21:11:59;101111.89;;;11.62;73.99
57900;BME280;60605;53.716;19.940;2022-09-03T21:27:52;101115.42;;;11.37;74.47
57900;BME280;60605;53.716;19.940;2022-09-03T21:33:01;101118.53;;;11.28;74.76
57900;BME280;60605;53.716;19.940;2022-09-03T21:38:07;101118.39;;;11.19;75.13
57900;BME280;60605;53.716;19.940;2022-09-03T21:43:47;101125.32;;;11.12;75.44
57900;BME280;60605;53.716;19.940;2022-09-03T21:48:55;101132.39;;;11.05;75.79
57900;BME280;60605;53.716;19.940;2022-09-03T21:54:17;101135.07;;;10.99;76.50
57900;BME280;60605;53.716;19.940;2022-09-03T22:04:36;101135.92;;;10.85;76.65
57900;BME280;60605;53.716;19.940;2022-09-03T22:14:52;101132.44;;;10.72;77.41
57900;BME280;60605;53.716;19.940;2022-09-03T22:19:56;101134.38;;;10.66;77.86
57900;BME280;60605;53.716;19.940;2022-09-03T22:30:17;101130.41;;;10.56;78.30
57900;BME280;60605;53.716;19.940;2022-09-03T22:57:01;101120.73;;;10.30;79.72
57900;BME280;60605;53.716;19.940;2022-09-03T23:02:23;101120.13;;;10.27;80.08
57900;BME280;60605;53.716;19.940;2022-09-03T23:07:49;101122.44;;;10.26;80.14
57900;BME280;60605;53.716;19.940;2022-09-03T23:13:06;101129.30;;;10.26;80.53
57900;BME280;60605;53.716;19.940;2022-09-03T23:18:12;101132.42;;;10.27;81.11
57900;BME280;60605;53.716;19.940;2022-09-03T23:23:24;101134.13;;;10.26;80.72
57900;BME280;60605;53.716;19.940;2022-09-03T23:28:35;101134.95;;;10.22;80.86
57900;BME280;60605;53.716;19.940;2022-09-03T23:33:38;101134.97;;;10.20;81.29
57900;BME280;60605;53.716;19.940;2022-09-03T23:39:02;101137.86;;;10.18;81.14
57900;BME280;60605;53.716;19.940;2022-09-03T23:44:29;101139.49;;;10.13;81.15
57900;BME280;60605;53.716;19.940;2022-09-03T23:49:40;101143.06;;;10.06;81.66
